Finley, Washington
Current Conditions -  °F | °C
As of 3:53 PM on Saturday 22 Nov 2014 (Local Time) from KPSC Reporting Station
Clear Clear  
Wind Chill: 38°   Ceiling: Unl
Heat Index: 44°   Visibility: 10mi
Dew Point: 39°   Wind: 13mph
Humidity: 82%   Direction: 300°WNW
Pressure: 29.86"   Gusts: NA
Location:  46.2117°N, 119.173°W
Report Text: KPSC 222353Z AUTO 30011KT 10SM CLR 07/04 A2986 RMK AO2 PRESRR SLP113 60001 T00670039 10100 20067 53021
Loading
Personal Weather Stations






























Interactive Weather Map New forecast layout! Learn more

10-Day Weather Forecast

Advertisements
Track Severe Weather on mobile